Aurora, OR

10:34 AM PDT on October 23, 2014 (GMT -0700)
Aurora State | Change Station
CLOSE
Current Station
Airport
Location: Aurora,
Elevation: 197 ft
Nearby Weather Stations

Elev 197 ft 45.25 °N, 122.77 °W | Updated 41 minutes ago

Overcast
Overcast
56 °F
Feels Like 56 °F
N
7
Wind Variable Wind from SSW

Today
High -- | Low -- °F
--% Chance of Precip.
Yesterday
High -- | Low -- °F
Precip. -- in
7:37 AM 6:12 PM
Waning Crescent, 0% visible
Pressure 29.86 in
Visibility 10.0 miles
Clouds Few 3600 ft
Overcast 4700 ft
Dew Point 53 °F
Humidity 90%
Rainfall 0.20 in
Snow Depth Not available.
UV 0 out of 12
Pollen .40 out of 12
Air Quality Not available.
Flu Activity Sporadic
METAR KUAO 231653Z AUTO 20006KT 10SM FEW036 OVC047 13/12 A2986 RMK AO2 SLP110 T01330117

More Conditions Fewer Conditions

Pressure 29.86 in
Visibility 10.0 miles
Clouds Few 3600 ft
Overcast 4700 ft
Dew Point 53 °F
Humidity 90%
Rainfall 0.20 in
Snow Depth Not available.
UV 0 out of 12
Pollen .40 out of 12
Air Quality Not available.
Flu Activity Sporadic
METAR KUAO 231653Z AUTO 20006KT 10SM FEW036 OVC047 13/12 A2986 RMK AO2 SLP110 T01330117

More Conditions Fewer Conditions

10-Day Weather Forecast

Almanac

Astronomy

Oct. 23, 2014 Rise Set
Actual Time 7:37 AM PDT 6:12 PM PDT
Civil Twilight 7:07 AM PDT 6:42 PM PDT
Nautical Twilight 6:33 AM PDT 7:16 PM PDT
Astronomical Twilight 5:59 AM PDT 7:50 PM PDT
Moon 7:22 AM PDT 6:17 PM PDT
Length of Visible Light 11h 34m
Length of Day
10h 34m
Tomorrow will be 2m 58s shorter.
Waning Crescent, 0% of the Moon is Illuminated
Today
Waning Crescent
Oct 23
New
Oct 30
First Quarter
Nov 6
Full
Nov 14
Last Quarter

Today's Extremes

State Highs State Lows

Community

WunderPhotos

Upload Photos

1,764,321 photos uploaded!

WunderBlogs® & News

Nearby

Snow Depth

Station Depth Elevation
Seine Creek 0 in 2000 ft
North Fork 0 in 3120 ft
Peavine Ridge 0 in 3500 ft
Mud Ridge 0 in 3800 ft
Clackamas Lake 0 in 3400 ft

Earthquake Activity

City Distance Mag. Time & Date
No recent earthquake activity has been reported nearby.
Minimum magnitude displayed is 2.5.

Coastal Water Temperatures

Place Temperature
No Stations Reporting

Nearby Weather Stations